EDW44M LSZH-FSIA
Flight info
| Callsign | EDW44M |
|---|---|
| Flight time | N/A |
| Altitude | 37000 |
| Route | DEGES Z2 XEBIX L607 ELMEM N606 GIRIS DCT NIVAS DCT PEVAL DCT AIOSA DCT LATAN DCT SALUN/N0492F390 N705 BOPIX N710 TAKRI P751 LXR M999 JDW G650 RASKA/N0487F400 G650 ULONI UG650 ASM/N0489F390 UA451 SB UR775 LUBAR/N0485F410 UR775 HARGA/N0488F400 UM651 MURAL/N0485F410 UG651 KUSUB UM651 ESTOK DCT IMSES DCT ETLOS T155 ROUTY |
| Aircraft | A359/H-SDE2E3GHIJ3J4J5LM1ORWXY/LB1D1 |
Departure
| Time | 2026-04-26 06:45 |
|---|---|
| Airport | Zürich Airport (LSZH) |
Arrival
| Time | N/A |
|---|---|
| Airport | Seychelles International Airport (FSIA) |
| Time | Latitude | Longitude | Altitude | Speed | Heading |
|---|---|---|---|---|---|
| 2026-04-26 06:11 | 47.45204 | 8.55697 | 1413 ft | 0 kts | 186° |
| 2026-04-26 06:33 | 47.45206 | 8.55697 | 1411 ft | 3 kts | 186° |
| 2026-04-26 06:34 | 47.45225 | 8.55701 | 1409 ft | 3 kts | 205° |
| 2026-04-26 06:34 | 47.45241 | 8.55715 | 1410 ft | 3 kts | 223° |
| 2026-04-26 06:34 | 47.45255 | 8.55735 | 1413 ft | 3 kts | 244° |
| 2026-04-26 06:34 | 47.45261 | 8.55761 | 1410 ft | 0 kts | 276° |
| 2026-04-26 06:35 | 47.45261 | 8.55763 | 1411 ft | 0 kts | 276° |
| 2026-04-26 06:38 | 47.45264 | 8.55725 | 1403 ft | 5 kts | 276° |
| 2026-04-26 06:39 | 47.45269 | 8.55663 | 1403 ft | 7 kts | 277° |
| 2026-04-26 06:39 | 47.45286 | 8.55584 | 1413 ft | 9 kts | 307° |
| 2026-04-26 06:39 | 47.45349 | 8.55525 | 1413 ft | 12 kts | 334° |
| 2026-04-26 06:39 | 47.45434 | 8.55466 | 1407 ft | 15 kts | 335° |
| 2026-04-26 06:40 | 47.45536 | 8.55395 | 1413 ft | 18 kts | 335° |
| 2026-04-26 06:40 | 47.45618 | 8.55341 | 1409 ft | 10 kts | 340° |
| 2026-04-26 06:40 | 47.45672 | 8.55375 | 1413 ft | 6 kts | 77° |
| 2026-04-26 06:40 | 47.45667 | 8.55441 | 1405 ft | 12 kts | 97° |
| 2026-04-26 06:41 | 47.45652 | 8.55649 | 1406 ft | 27 kts | 94° |
| 2026-04-26 06:41 | 47.45633 | 8.55920 | 1411 ft | 26 kts | 96° |
| 2026-04-26 06:41 | 47.45614 | 8.56192 | 1409 ft | 27 kts | 96° |
| 2026-04-26 06:41 | 47.45595 | 8.56463 | 1410 ft | 27 kts | 96° |
| 2026-04-26 06:42 | 47.45576 | 8.56731 | 1410 ft | 24 kts | 96° |
| 2026-04-26 06:42 | 47.45567 | 8.56852 | 1403 ft | 6 kts | 97° |
| 2026-04-26 06:42 | 47.45562 | 8.56917 | 1405 ft | 7 kts | 97° |
| 2026-04-26 06:42 | 47.45569 | 8.56978 | 1408 ft | 5 kts | 58° |
| 2026-04-26 06:43 | 47.45580 | 8.56992 | 1412 ft | 0 kts | 41° |
| 2026-04-26 06:43 | 47.45586 | 8.57000 | 1412 ft | 7 kts | 37° |
| 2026-04-26 06:43 | 47.45660 | 8.56975 | 1412 ft | 13 kts | 289° |
| 2026-04-26 06:43 | 47.45669 | 8.56886 | 1409 ft | 0 kts | 275° |
| 2026-04-26 06:44 | 47.45670 | 8.56881 | 1409 ft | 5 kts | 275° |
| 2026-04-26 06:44 | 47.45700 | 8.56471 | 1405 ft | 80 kts | 276° |
| 2026-04-26 06:44 | 47.45786 | 8.55269 | 1402 ft | 152 kts | 276° |
| 2026-04-26 06:44 | 47.45937 | 8.53546 | 1989 ft | 167 kts | 280° |
| 2026-04-26 06:45 | 47.46127 | 8.51854 | 2848 ft | 177 kts | 284° |
| 2026-04-26 06:45 | 47.46373 | 8.49943 | 2979 ft | 199 kts | 282° |
| 2026-04-26 06:45 | 47.46421 | 8.47837 | 3208 ft | 216 kts | 263° |
| 2026-04-26 06:45 | 47.45740 | 8.45811 | 3396 ft | 231 kts | 222° |
| 2026-04-26 06:46 | 47.44405 | 8.44415 | 3781 ft | 239 kts | 213° |
| 2026-04-26 06:46 | 47.43644 | 8.43224 | 4108 ft | 243 kts | 242° |
| 2026-04-26 06:46 | 47.43140 | 8.40894 | 4787 ft | 237 kts | 259° |
| 2026-04-26 06:46 | 47.42755 | 8.38533 | 5383 ft | 236 kts | 250° |
| 2026-04-26 06:47 | 47.41816 | 8.36598 | 5945 ft | 234 kts | 216° |
| 2026-04-26 06:47 | 47.40323 | 8.35781 | 6484 ft | 231 kts | 182° |
| 2026-04-26 06:47 | 47.38780 | 8.36304 | 6965 ft | 230 kts | 151° |
| 2026-04-26 06:47 | 47.37576 | 8.37850 | 7361 ft | 233 kts | 124° |
| 2026-04-26 06:48 | 47.37062 | 8.40084 | 7784 ft | 233 kts | 91° |
| 2026-04-26 06:48 | 47.37426 | 8.42383 | 8247 ft | 232 kts | 60° |
| 2026-04-26 06:48 | 47.38527 | 8.44083 | 8714 ft | 233 kts | 31° |
| 2026-04-26 06:48 | 47.40015 | 8.45062 | 9183 ft | 235 kts | 22° |
| 2026-04-26 06:49 | 47.41452 | 8.46219 | 9674 ft | 239 kts | 43° |
| 2026-04-26 06:49 | 47.42502 | 8.48131 | 10127 ft | 244 kts | 55° |
| 2026-04-26 06:49 | 47.43469 | 8.50221 | 10403 ft | 254 kts | 55° |
| 2026-04-26 06:49 | 47.44506 | 8.52434 | 10616 ft | 269 kts | 54° |
| 2026-04-26 06:50 | 47.45468 | 8.54881 | 10844 ft | 283 kts | 69° |
| 2026-04-26 06:50 | 47.45808 | 8.57807 | 11096 ft | 296 kts | 87° |
| 2026-04-26 06:50 | 47.45897 | 8.60911 | 11361 ft | 309 kts | 87° |
| 2026-04-26 06:50 | 47.46005 | 8.64147 | 11599 ft | 321 kts | 86° |
| 2026-04-26 06:51 | 47.46125 | 8.67504 | 11833 ft | 334 kts | 86° |
| 2026-04-26 06:51 | 47.46389 | 8.74601 | 12268 ft | 357 kts | 86° |
| 2026-04-26 06:51 | 47.46525 | 8.78324 | 12469 ft | 368 kts | 86° |
| 2026-04-26 06:52 | 47.46562 | 8.82165 | 12662 ft | 379 kts | 94° |
| 2026-04-26 06:52 | 47.46152 | 8.86054 | 12947 ft | 387 kts | 101° |
| 2026-04-26 06:52 | 47.45584 | 8.89956 | 13342 ft | 390 kts | 102° |
| 2026-04-26 06:52 | 47.45007 | 8.93886 | 13756 ft | 392 kts | 102° |
| 2026-04-26 06:53 | 47.44436 | 8.97832 | 14151 ft | 395 kts | 102° |
| 2026-04-26 06:53 | 47.43862 | 9.01817 | 14506 ft | 397 kts | 102° |
| 2026-04-26 06:53 | 47.43287 | 9.05812 | 14870 ft | 400 kts | 102° |
| 2026-04-26 06:53 | 47.42704 | 9.09841 | 15222 ft | 402 kts | 102° |
| 2026-04-26 06:54 | 47.42115 | 9.13898 | 15583 ft | 405 kts | 102° |
| 2026-04-26 06:54 | 47.41570 | 9.17981 | 15920 ft | 407 kts | 97° |
| 2026-04-26 06:54 | 47.41534 | 9.22157 | 16323 ft | 406 kts | 84° |
| 2026-04-26 06:54 | 47.41928 | 9.26292 | 16708 ft | 408 kts | 79° |
| 2026-04-26 06:55 | 47.42499 | 9.30358 | 17050 ft | 410 kts | 76° |
| 2026-04-26 06:55 | 47.43160 | 9.34463 | 17395 ft | 412 kts | 76° |
| 2026-04-26 06:55 | 47.43847 | 9.38585 | 17779 ft | 415 kts | 76° |
| 2026-04-26 06:55 | 47.44529 | 9.42737 | 18135 ft | 417 kts | 76° |
| 2026-04-26 06:56 | 47.45197 | 9.46926 | 18494 ft | 419 kts | 76° |
| 2026-04-26 06:56 | 47.45850 | 9.51137 | 18795 ft | 422 kts | 77° |
| 2026-04-26 06:56 | 47.46491 | 9.55371 | 19071 ft | 424 kts | 77° |
| 2026-04-26 06:56 | 47.46926 | 9.59695 | 19372 ft | 427 kts | 86° |
| 2026-04-26 06:57 | 47.46951 | 9.64101 | 19672 ft | 429 kts | 91° |
| 2026-04-26 06:57 | 47.46816 | 9.68513 | 19983 ft | 431 kts | 93° |
| 2026-04-26 06:57 | 47.46593 | 9.72945 | 20248 ft | 434 kts | 94° |
| 2026-04-26 06:57 | 47.46210 | 9.79303 | 20642 ft | 437 kts | 95° |
| 2026-04-26 06:58 | 47.45658 | 9.88304 | 21181 ft | 441 kts | 94° |
| 2026-04-26 06:58 | 47.45127 | 9.97368 | 21722 ft | 445 kts | 94° |
| 2026-04-26 06:58 | 47.44602 | 10.06517 | 22278 ft | 449 kts | 94° |
| 2026-04-26 06:58 | 47.44060 | 10.15727 | 22830 ft | 452 kts | 95° |
| 2026-04-26 06:59 | 47.43039 | 10.24956 | 23331 ft | 457 kts | 99° |
| 2026-04-26 06:59 | 47.41810 | 10.34227 | 23838 ft | 461 kts | 100° |
| 2026-04-26 06:59 | 47.39899 | 10.43279 | 24298 ft | 467 kts | 116° |
| 2026-04-26 06:59 | 47.35843 | 10.50760 | 24654 ft | 473 kts | 142° |
| 2026-04-26 07:00 | 47.30237 | 10.55921 | 25102 ft | 475 kts | 152° |
| 2026-04-26 07:00 | 47.24380 | 10.60444 | 25599 ft | 477 kts | 153° |
| 2026-04-26 07:00 | 47.18458 | 10.64934 | 26046 ft | 481 kts | 155° |
| 2026-04-26 07:00 | 47.12241 | 10.68688 | 26545 ft | 483 kts | 160° |
| 2026-04-26 07:01 | 47.05929 | 10.72176 | 27067 ft | 486 kts | 161° |
| 2026-04-26 07:01 | 46.99561 | 10.75647 | 27395 ft | 493 kts | 160° |
| 2026-04-26 07:01 | 46.93136 | 10.79258 | 27936 ft | 495 kts | 160° |
| 2026-04-26 07:01 | 46.86704 | 10.82899 | 28407 ft | 498 kts | 160° |
| 2026-04-26 07:02 | 46.80264 | 10.86753 | 28921 ft | 501 kts | 154° |
| 2026-04-26 07:02 | 46.74642 | 10.92567 | 29369 ft | 504 kts | 135° |
| 2026-04-26 07:02 | 46.69809 | 11.00026 | 29825 ft | 507 kts | 132° |
| 2026-04-26 07:02 | 46.65128 | 11.07782 | 30179 ft | 511 kts | 131° |
| 2026-04-26 07:03 | 46.60417 | 11.15584 | 30552 ft | 515 kts | 131° |
| 2026-04-26 07:03 | 46.55679 | 11.23330 | 31220 ft | 511 kts | 132° |
| 2026-04-26 07:03 | 46.50950 | 11.30997 | 31842 ft | 508 kts | 133° |
| 2026-04-26 07:03 | 46.46212 | 11.38648 | 32433 ft | 507 kts | 133° |
| 2026-04-26 07:04 | 46.41494 | 11.46246 | 32992 ft | 505 kts | 133° |
| 2026-04-26 07:04 | 46.36799 | 11.53790 | 33609 ft | 503 kts | 133° |
| 2026-04-26 07:04 | 46.32124 | 11.61282 | 34153 ft | 501 kts | 133° |
| 2026-04-26 07:04 | 46.27439 | 11.68768 | 34627 ft | 500 kts | 133° |
| 2026-04-26 07:05 | 46.22777 | 11.76201 | 35068 ft | 499 kts | 133° |
| 2026-04-26 07:05 | 46.18116 | 11.83611 | 35484 ft | 498 kts | 134° |
| 2026-04-26 07:05 | 46.13453 | 11.91006 | 35899 ft | 498 kts | 134° |
| 2026-04-26 07:05 | 46.08791 | 11.98377 | 36337 ft | 497 kts | 134° |
| 2026-04-26 07:06 | 46.04106 | 12.05767 | 36536 ft | 500 kts | 134° |
| 2026-04-26 07:06 | 45.99426 | 12.13131 | 36908 ft | 499 kts | 134° |
| 2026-04-26 07:06 | 45.94730 | 12.20501 | 37082 ft | 502 kts | 134° |
| 2026-04-26 07:06 | 45.89982 | 12.27930 | 37067 ft | 504 kts | 134° |
| 2026-04-26 07:07 | 45.80795 | 12.43128 | 37072 ft | 503 kts | 132° |
| 2026-04-26 07:07 | 45.71738 | 12.58238 | 37075 ft | 503 kts | 132° |
| 2026-04-26 07:08 | 45.62488 | 12.73472 | 37079 ft | 504 kts | 132° |
| 2026-04-26 07:08 | 45.53349 | 12.88447 | 37080 ft | 503 kts | 132° |
| 2026-04-26 07:09 | 45.44110 | 13.03506 | 37080 ft | 505 kts | 132° |
| 2026-04-26 07:09 | 45.34852 | 13.18514 | 37082 ft | 505 kts | 132° |
| 2026-04-26 07:11 | 45.09203 | 13.52435 | 37084 ft | 504 kts | 139° |
| 2026-04-26 07:11 | 44.98736 | 13.65642 | 37082 ft | 504 kts | 139° |
| 2026-04-26 07:12 | 44.88261 | 13.78794 | 37076 ft | 504 kts | 140° |
| 2026-04-26 07:12 | 44.77766 | 13.91902 | 37077 ft | 504 kts | 140° |
| 2026-04-26 07:13 | 44.67237 | 14.04988 | 37084 ft | 504 kts | 140° |
| 2026-04-26 07:13 | 44.56706 | 14.18009 | 37078 ft | 504 kts | 140° |
| 2026-04-26 07:14 | 44.46176 | 14.30964 | 37077 ft | 504 kts | 140° |
| 2026-04-26 07:14 | 44.35603 | 14.43908 | 37084 ft | 504 kts | 140° |
| 2026-04-26 07:15 | 44.25028 | 14.56788 | 37090 ft | 504 kts | 140° |
| 2026-04-26 07:15 | 44.14497 | 14.69552 | 37096 ft | 505 kts | 140° |
| 2026-04-26 07:16 | 44.03878 | 14.82359 | 37096 ft | 505 kts | 141° |
| 2026-04-26 07:16 | 43.93242 | 14.95125 | 37098 ft | 505 kts | 141° |
| 2026-04-26 07:17 | 43.82596 | 15.07839 | 37086 ft | 505 kts | 141° |
| 2026-04-26 07:17 | 43.71943 | 15.20500 | 37089 ft | 505 kts | 141° |
| 2026-04-26 07:18 | 43.61277 | 15.33115 | 37086 ft | 504 kts | 141° |
| 2026-04-26 07:18 | 43.50587 | 15.45697 | 37085 ft | 504 kts | 141° |
| 2026-04-26 07:19 | 43.39901 | 15.58213 | 37085 ft | 504 kts | 142° |
| 2026-04-26 07:19 | 43.29202 | 15.70685 | 37088 ft | 504 kts | 142° |
| 2026-04-26 07:20 | 43.18488 | 15.83114 | 37084 ft | 504 kts | 142° |
| 2026-04-26 07:20 | 43.07750 | 15.95513 | 37086 ft | 504 kts | 142° |
| 2026-04-26 07:21 | 42.97014 | 16.07850 | 37091 ft | 504 kts | 142° |
| 2026-04-26 07:21 | 42.86298 | 16.20106 | 37080 ft | 504 kts | 143° |
| 2026-04-26 07:22 | 42.75609 | 16.32275 | 37082 ft | 504 kts | 143° |
| 2026-04-26 07:22 | 42.54757 | 16.55850 | 37091 ft | 503 kts | 143° |
| 2026-04-26 07:23 | 42.33193 | 16.80010 | 37089 ft | 502 kts | 143° |
| 2026-04-26 07:23 | 42.11588 | 17.03994 | 37086 ft | 501 kts | 143° |
| 2026-04-26 07:24 | 41.89615 | 17.26871 | 37079 ft | 496 kts | 154° |
| 2026-04-26 07:24 | 41.65125 | 17.43833 | 37087 ft | 495 kts | 156° |
| 2026-04-26 07:25 | 41.44776 | 17.57797 | 37088 ft | 494 kts | 156° |
| 2026-04-26 07:25 | 41.20251 | 17.74492 | 37091 ft | 494 kts | 156° |
| 2026-04-26 07:26 | 40.95770 | 17.91018 | 37093 ft | 493 kts | 156° |
| 2026-04-26 07:26 | 40.71287 | 18.07407 | 37079 ft | 491 kts | 156° |
| 2026-04-26 07:27 | 40.46924 | 18.23581 | 37086 ft | 489 kts | 156° |
| 2026-04-26 07:27 | 40.22622 | 18.39583 | 37083 ft | 488 kts | 156° |
| 2026-04-26 07:28 | 39.98322 | 18.55456 | 37090 ft | 488 kts | 155° |
| 2026-04-26 07:28 | 39.74026 | 18.71199 | 37084 ft | 487 kts | 155° |
| 2026-04-26 07:29 | 39.49696 | 18.86838 | 37093 ft | 488 kts | 155° |
| 2026-04-26 07:29 | 39.25910 | 19.03682 | 37067 ft | 490 kts | 142° |
| 2026-04-26 07:30 | 39.05358 | 19.26821 | 37075 ft | 492 kts | 140° |
| 2026-04-26 07:30 | 38.84710 | 19.49878 | 37088 ft | 492 kts | 140° |
| 2026-04-26 07:31 | 38.63981 | 19.72847 | 37082 ft | 491 kts | 140° |
| 2026-04-26 07:31 | 38.43251 | 19.95634 | 37080 ft | 491 kts | 140° |
| 2026-04-26 07:32 | 38.22580 | 20.18177 | 37075 ft | 491 kts | 139° |
| 2026-04-26 07:32 | 38.01772 | 20.40696 | 37062 ft | 491 kts | 140° |
| 2026-04-26 07:33 | 37.80835 | 20.63180 | 37053 ft | 493 kts | 139° |
| 2026-04-26 07:33 | 37.59904 | 20.85483 | 37052 ft | 494 kts | 139° |
| 2026-04-26 07:34 | 37.38827 | 21.07772 | 37063 ft | 495 kts | 139° |
| 2026-04-26 07:34 | 37.17670 | 21.29976 | 37059 ft | 496 kts | 139° |
| 2026-04-26 07:35 | 36.96369 | 21.52163 | 37052 ft | 497 kts | 139° |
| 2026-04-26 07:35 | 36.75032 | 21.74220 | 37051 ft | 498 kts | 139° |
| 2026-04-26 07:36 | 36.53579 | 21.96232 | 37048 ft | 501 kts | 139° |
| 2026-04-26 07:36 | 36.31964 | 22.18246 | 37048 ft | 503 kts | 139° |
| 2026-04-26 07:37 | 36.10385 | 22.40060 | 37049 ft | 504 kts | 139° |
| 2026-04-26 07:37 | 35.88530 | 22.61993 | 37052 ft | 509 kts | 140° |
| 2026-04-26 07:38 | 35.66485 | 22.83955 | 37041 ft | 512 kts | 140° |
| 2026-04-26 07:38 | 35.44263 | 23.05928 | 37036 ft | 513 kts | 140° |
| 2026-04-26 07:39 | 35.21856 | 23.27924 | 37026 ft | 516 kts | 141° |
| 2026-04-26 07:39 | 34.99354 | 23.49853 | 37007 ft | 517 kts | 142° |
| 2026-04-26 07:40 | 34.76755 | 23.71718 | 36999 ft | 523 kts | 142° |
| 2026-04-26 07:40 | 34.53984 | 23.93590 | 36990 ft | 521 kts | 143° |
| 2026-04-26 07:41 | 34.31088 | 24.15425 | 36993 ft | 523 kts | 143° |
| 2026-04-26 07:41 | 34.08050 | 24.37237 | 36988 ft | 528 kts | 144° |
| 2026-04-26 07:42 | 33.85780 | 24.60049 | 36989 ft | 530 kts | 140° |
| 2026-04-26 07:42 | 33.63749 | 24.83687 | 36974 ft | 530 kts | 141° |
| 2026-04-26 07:43 | 33.41630 | 25.07184 | 36977 ft | 532 kts | 142° |
| 2026-04-26 07:43 | 33.19445 | 25.30583 | 36976 ft | 532 kts | 142° |
| 2026-04-26 07:44 | 32.97180 | 25.53902 | 36976 ft | 534 kts | 142° |
| 2026-04-26 07:44 | 32.74736 | 25.77244 | 36972 ft | 537 kts | 143° |
| 2026-04-26 07:45 | 32.52157 | 26.00569 | 36978 ft | 538 kts | 144° |
| 2026-04-26 07:45 | 32.29514 | 26.23788 | 36982 ft | 540 kts | 144° |
| 2026-04-26 07:45 | 32.18187 | 26.35348 | 37145 ft | 539 kts | 145° |
| 2026-04-26 07:46 | 32.06830 | 26.46902 | 37881 ft | 537 kts | 145° |
| 2026-04-26 07:46 | 31.95458 | 26.58429 | 38412 ft | 537 kts | 146° |
| 2026-04-26 07:46 | 31.84112 | 26.69891 | 38898 ft | 537 kts | 146° |
| 2026-04-26 07:46 | 31.72785 | 26.81295 | 39136 ft | 539 kts | 147° |
| 2026-04-26 07:47 | 31.61350 | 26.92767 | 39415 ft | 540 kts | 147° |
| 2026-04-26 07:47 | 31.49911 | 27.04208 | 39726 ft | 540 kts | 147° |
| 2026-04-26 07:47 | 31.38613 | 27.15466 | 39836 ft | 543 kts | 148° |
| 2026-04-26 07:47 | 31.26400 | 27.25175 | 40138 ft | 522 kts | 164° |
| 2026-04-26 07:48 | 31.13261 | 27.32298 | 40337 ft | 519 kts | 166° |
| 2026-04-26 07:48 | 31.00128 | 27.39361 | 40515 ft | 520 kts | 165° |
| 2026-04-26 07:48 | 30.87553 | 27.48291 | 40694 ft | 538 kts | 151° |
| 2026-04-26 07:49 | 30.64097 | 27.70089 | 41026 ft | 540 kts | 151° |
| 2026-04-26 07:49 | 30.40429 | 27.91838 | 41022 ft | 543 kts | 151° |
| 2026-04-26 07:50 | 30.04858 | 28.24280 | 41030 ft | 542 kts | 152° |
| 2026-04-26 07:50 | 29.82088 | 28.47350 | 41048 ft | 561 kts | 137° |
| 2026-04-26 07:51 | 29.63028 | 28.75884 | 41051 ft | 561 kts | 136° |
| 2026-04-26 07:51 | 29.43888 | 29.04201 | 41032 ft | 560 kts | 137° |
| 2026-04-26 07:52 | 29.32532 | 29.15531 | 41037 ft | 538 kts | 154° |
| 2026-04-26 07:52 | 29.20693 | 29.25705 | 41031 ft | 538 kts | 154° |
| 2026-04-26 07:52 | 28.96623 | 29.46023 | 41043 ft | 537 kts | 155° |
| 2026-04-26 07:53 | 28.72404 | 29.66059 | 41063 ft | 537 kts | 155° |
| 2026-04-26 07:53 | 28.48219 | 29.85973 | 41072 ft | 535 kts | 155° |
| 2026-04-26 07:54 | 28.24119 | 30.05701 | 41083 ft | 533 kts | 155° |
| 2026-04-26 07:54 | 28.00174 | 30.25195 | 41094 ft | 528 kts | 155° |
| 2026-04-26 07:55 | 27.76252 | 30.44556 | 41092 ft | 527 kts | 156° |
| 2026-04-26 07:55 | 27.52364 | 30.63786 | 41096 ft | 527 kts | 156° |
| 2026-04-26 07:56 | 27.28456 | 30.82927 | 41099 ft | 526 kts | 156° |
| 2026-04-26 07:56 | 27.04624 | 31.02018 | 41124 ft | 533 kts | 151° |
| 2026-04-26 07:57 | 26.94507 | 31.14783 | 41121 ft | 553 kts | 139° |
| 2026-04-26 07:57 | 26.84863 | 31.28198 | 41076 ft | 552 kts | 139° |
| 2026-04-26 07:57 | 26.65418 | 31.54830 | 40992 ft | 552 kts | 140° |
| 2026-04-26 07:58 | 26.45912 | 31.81380 | 40956 ft | 553 kts | 139° |
| 2026-04-26 07:58 | 26.26277 | 32.07948 | 40943 ft | 555 kts | 139° |
| 2026-04-26 07:59 | 26.06570 | 32.34458 | 40950 ft | 555 kts | 139° |
| 2026-04-26 07:59 | 25.86832 | 32.60855 | 40966 ft | 555 kts | 139° |
| 2026-04-26 08:00 | 25.68032 | 32.88180 | 40961 ft | 562 kts | 132° |
| 2026-04-26 08:00 | 25.50869 | 33.16925 | 40940 ft | 559 kts | 132° |
| 2026-04-26 08:01 | 25.33642 | 33.45528 | 40943 ft | 558 kts | 132° |
| 2026-04-26 08:01 | 25.16428 | 33.73952 | 40944 ft | 555 kts | 132° |
| 2026-04-26 08:02 | 24.99207 | 34.02219 | 40947 ft | 555 kts | 132° |
| 2026-04-26 08:02 | 24.93086 | 34.12227 | 40953 ft | 554 kts | 132° |
| 2026-04-26 08:03 | 24.88796 | 34.19229 | 40952 ft | 554 kts | 132° |
| 2026-04-26 08:03 | 24.74887 | 34.41861 | 40961 ft | 551 kts | 132° |
| 2026-04-26 08:04 | 24.68611 | 34.52036 | 40959 ft | 550 kts | 131° |
| 2026-04-26 08:04 | 24.64307 | 34.59003 | 40963 ft | 550 kts | 132° |
| 2026-04-26 08:05 | 24.60002 | 34.65954 | 40964 ft | 550 kts | 132° |
| 2026-04-26 08:05 | 24.43545 | 34.92207 | 40975 ft | 549 kts | 132° |
| 2026-04-26 08:06 | 24.29162 | 35.14974 | 39308 ft | 543 kts | 132° |
| 2026-04-26 08:06 | 24.20423 | 35.28794 | 36068 ft | 556 kts | 132° |
| 2026-04-26 08:06 | 24.11536 | 35.42842 | 32907 ft | 566 kts | 132° |
| 2026-04-26 08:07 | 24.02456 | 35.57090 | 30134 ft | 576 kts | 132° |
| 2026-04-26 08:07 | 23.93085 | 35.71334 | 29928 ft | 576 kts | 135° |
| 2026-04-26 08:07 | 23.73886 | 35.99325 | 29961 ft | 575 kts | 134° |
| 2026-04-26 08:08 | 23.54707 | 36.27291 | 29950 ft | 575 kts | 134° |
| 2026-04-26 08:08 | 23.35562 | 36.55055 | 29948 ft | 572 kts | 134° |
| 2026-04-26 08:09 | 23.16406 | 36.82684 | 29944 ft | 572 kts | 134° |
| 2026-04-26 08:09 | 22.97162 | 37.10294 | 29944 ft | 573 kts | 133° |
| 2026-04-26 08:10 | 22.77904 | 37.37778 | 29938 ft | 571 kts | 133° |
| 2026-04-26 08:10 | 22.58669 | 37.65082 | 29935 ft | 569 kts | 133° |
| 2026-04-26 08:11 | 22.39410 | 37.92277 | 29886 ft | 567 kts | 133° |
| 2026-04-26 08:11 | 22.29975 | 38.05566 | 27102 ft | 548 kts | 133° |
| 2026-04-26 08:11 | 22.21000 | 38.18173 | 25058 ft | 518 kts | 133° |
| 2026-04-26 08:12 | 22.12330 | 38.30306 | 23354 ft | 498 kts | 133° |
| 2026-04-26 08:12 | 22.03999 | 38.41951 | 20647 ft | 480 kts | 133° |
| 2026-04-26 08:12 | 21.96108 | 38.52955 | 18302 ft | 459 kts | 133° |
| 2026-04-26 08:12 | 21.88357 | 38.63740 | 15682 ft | 440 kts | 132° |
| 2026-04-26 08:13 | 21.81198 | 38.73684 | 12644 ft | 401 kts | 131° |
| 2026-04-26 08:13 | 21.74726 | 38.82644 | 11001 ft | 359 kts | 131° |
| 2026-04-26 08:13 | 21.69125 | 38.90375 | 10555 ft | 300 kts | 132° |
| 2026-04-26 08:13 | 21.67296 | 38.92893 | 10417 ft | 294 kts | 132° |
| 2026-04-26 08:14 | 21.66030 | 38.94575 | 9978 ft | 284 kts | 137° |
| 2026-04-26 08:14 | 21.64496 | 38.95863 | 9263 ft | 278 kts | 152° |
| 2026-04-26 08:14 | 21.62753 | 38.96765 | 8417 ft | 279 kts | 160° |
| 2026-04-26 08:14 | 21.60940 | 38.97536 | 7639 ft | 280 kts | 161° |
| 2026-04-26 08:15 | 21.59126 | 38.98281 | 6955 ft | 278 kts | 161° |
| 2026-04-26 08:15 | 21.57314 | 38.99008 | 6190 ft | 279 kts | 161° |
| 2026-04-26 08:15 | 21.55474 | 38.99721 | 5404 ft | 281 kts | 161° |
| 2026-04-26 08:15 | 21.53744 | 39.00654 | 4643 ft | 278 kts | 141° |
| 2026-04-26 08:16 | 21.52563 | 39.02267 | 4167 ft | 274 kts | 113° |
| 2026-04-26 08:16 | 21.52189 | 39.04216 | 3930 ft | 262 kts | 88° |
| 2026-04-26 08:16 | 21.52478 | 39.06099 | 3759 ft | 250 kts | 76° |
| 2026-04-26 08:16 | 21.52919 | 39.07867 | 3621 ft | 240 kts | 75° |
| 2026-04-26 08:17 | 21.53363 | 39.09553 | 3469 ft | 228 kts | 74° |
| 2026-04-26 08:17 | 21.53779 | 39.11112 | 3302 ft | 212 kts | 74° |
| 2026-04-26 08:17 | 21.54146 | 39.12574 | 3171 ft | 193 kts | 78° |
| 2026-04-26 08:17 | 21.54431 | 39.13917 | 3040 ft | 176 kts | 82° |
| 2026-04-26 08:18 | 21.54552 | 39.15199 | 2893 ft | 171 kts | 92° |
| 2026-04-26 08:18 | 21.54602 | 39.16448 | 2705 ft | 165 kts | 82° |
| 2026-04-26 08:18 | 21.55188 | 39.17475 | 2453 ft | 162 kts | 45° |
| 2026-04-26 08:18 | 21.56191 | 39.18019 | 2236 ft | 166 kts | 12° |
| 2026-04-26 08:19 | 21.57355 | 39.17913 | 2003 ft | 172 kts | 340° |
| 2026-04-26 08:19 | 21.58425 | 39.17358 | 1799 ft | 169 kts | 334° |
| 2026-04-26 08:19 | 21.59508 | 39.16879 | 1648 ft | 168 kts | 340° |
| 2026-04-26 08:19 | 21.60598 | 39.16439 | 1489 ft | 167 kts | 340° |
| 2026-04-26 08:20 | 21.61681 | 39.16019 | 1226 ft | 165 kts | 340° |
| 2026-04-26 08:20 | 21.62765 | 39.15619 | 970 ft | 160 kts | 340° |
| 2026-04-26 08:20 | 21.63784 | 39.15229 | 740 ft | 151 kts | 340° |
| 2026-04-26 08:20 | 21.64741 | 39.14861 | 468 ft | 140 kts | 339° |
| 2026-04-26 08:21 | 21.65618 | 39.14515 | 357 ft | 136 kts | 338° |
| 2026-04-26 08:21 | 21.66527 | 39.14154 | 220 ft | 143 kts | 340° |
| 2026-04-26 08:21 | 21.67459 | 39.13799 | 43 ft | 139 kts | 338° |
| 2026-04-26 08:21 | 21.68239 | 39.13487 | 36 ft | 84 kts | 339° |
| 2026-04-26 08:22 | 21.68522 | 39.13401 | 35 ft | 21 kts | 9° |
| 2026-04-26 08:22 | 21.68671 | 39.13431 | 34 ft | 22 kts | 11° |
| 2026-04-26 08:22 | 21.68716 | 39.13441 | 34 ft | 0 kts | 11° |